Time;durP1;ratioP1;P1;durP2;ratioP2;P2;SDS_P1;SDS_P2;PMS_P1;PMS_P2;Temp;Humidity;BMP_temperature;BMP_pressure;BME280_temperature;BME280_humidity;BME280_pressure;Samples;Min_cycle;Max_cycle;Signal;HPM_P1;HPM_P2
2022/09/06 00:02:04;;;;;;;6.43;2.90;;;21.10;96.50;;;;;;5156467;27;20054;-79
2022/09/06 00:04:29;;;;;;;6.57;3.30;;;21.00;96.60;;;;;;5137939;27;20042;-79
2022/09/06 00:06:55;;;;;;;5.80;3.07;;;21.00;96.70;;;;;;5156310;27;20050;-79
2022/09/06 00:09:20;;;;;;;4.53;2.80;;;20.90;96.80;;;;;;5137785;27;20054;-79
2022/09/06 00:11:46;;;;;;;6.03;2.83;;;20.90;96.80;;;;;;5137793;27;20046;-79
2022/09/06 00:14:11;;;;;;;5.23;2.90;;;20.90;96.90;;;;;;5156296;27;20042;-79
2022/09/06 00:16:39;;;;;;;4.33;3.00;;;20.90;96.90;;;;;;5137741;27;20545;-79
2022/09/06 00:19:05;;;;;;;4.45;2.97;;;21.00;97.00;;;;;;5156033;27;20051;-79
2022/09/06 00:21:30;;;;;;;4.93;3.60;;;20.80;97.10;;;;;;5156111;27;20454;-79
2022/09/06 00:23:56;;;;;;;8.33;3.10;;;20.80;97.10;;;;;;5156311;27;20522;-79
2022/09/06 00:26:22;;;;;;;5.20;3.17;;;20.80;97.20;;;;;;5156010;27;20501;-79
2022/09/06 00:28:48;;;;;;;4.32;3.22;;;20.80;97.30;;;;;;5120696;27;20035;-79
2022/09/06 00:31:16;;;;;;;5.40;3.07;;;20.80;97.30;;;;;;5156009;27;20047;-79
2022/09/06 00:33:43;;;;;;;4.45;3.33;;;20.80;97.30;;;;;;5155837;27;20284;-79
2022/09/06 00:36:09;;;;;;;4.55;3.13;;;20.70;97.40;;;;;;5155773;27;20042;-78
2022/09/06 00:38:35;;;;;;;4.72;3.03;;;20.80;97.40;;;;;;5156312;27;20367;-79
2022/09/06 00:41:01;;;;;;;6.77;3.10;;;20.70;97.40;;;;;;5157256;27;20043;-79
2022/09/06 00:43:26;;;;;;;4.70;3.47;;;20.70;97.50;;;;;;5155968;27;20119;-79
2022/09/06 00:45:53;;;;;;;3.97;3.10;;;20.70;97.60;;;;;;5155671;27;20035;-79
2022/09/06 00:48:21;;;;;;;5.35;3.25;;;20.70;97.70;;;;;;5155608;27;20053;-78
2022/09/06 00:50:48;;;;;;;5.70;3.00;;;20.60;97.80;;;;;;5120606;27;20045;-79
2022/09/06 00:53:15;;;;;;;5.88;3.35;;;20.60;97.90;;;;;;5137358;27;20086;-78
2022/09/06 00:55:41;;;;;;;;;;;20.60;98.00;;;;;;5158024;27;20046;-79
2022/09/06 00:58:08;;;;;;;6.47;3.42;;;20.60;98.20;;;;;;5155698;27;19919;-79
2022/09/06 01:00:35;;;;;;;3.85;3.30;;;20.50;98.00;;;;;;5155219;27;20528;-79
2022/09/06 01:03:01;;;;;;;4.50;3.45;;;20.50;98.20;;;;;;5155222;27;20038;-79
2022/09/06 01:05:52;;;;;;;3.97;3.13;;;20.50;98.30;;;;;;5155487;27;20115;-79
2022/09/06 01:08:55;;;;;;;6.57;3.53;;;20.50;98.40;;;;;;5155315;27;20086;-79
2022/09/06 01:11:57;;;;;;;4.10;2.95;;;20.40;98.40;;;;;;5136814;27;20107;-78
2022/09/06 01:14:46;;;;;;;5.93;3.10;;;20.40;98.60;;;;;;5155353;27;20045;-78
2022/09/06 01:17:33;;;;;;;4.05;2.92;;;20.40;98.70;;;;;;5155468;27;20126;-79
2022/09/06 01:20:08;;;;;;;5.95;3.20;;;20.40;98.70;;;;;;5136929;27;20043;-79
2022/09/06 01:22:34;;;;;;;6.07;3.28;;;20.40;98.80;;;;;;5155216;27;20133;-79
2022/09/06 01:25:18;;;;;;;3.40;3.00;;;20.50;98.80;;;;;;5155458;27;20137;-76
2022/09/06 01:27:57;;;;;;;4.93;3.10;;;20.40;98.90;;;;;;5155204;27;20043;-78
2022/09/06 01:30:24;;;;;;;7.57;3.35;;;20.40;99.00;;;;;;5119468;27;20046;-78
2022/09/06 01:33:18;;;;;;;6.38;3.30;;;20.40;99.00;;;;;;5155156;27;20043;-78
2022/09/06 01:35:52;;;;;;;6.03;3.13;;;20.40;99.40;;;;;;5155125;27;20038;-77
2022/09/06 01:38:18;;;;;;;4.88;3.03;;;20.40;99.30;;;;;;5136692;27;20102;-78
2022/09/06 01:40:43;;;;;;;6.07;3.00;;;20.40;99.30;;;;;;5136759;27;20039;-78
2022/09/06 01:43:12;;;;;;;6.43;3.50;;;20.30;99.40;;;;;;5136465;27;20404;-78
2022/09/06 01:45:54;;;;;;;5.57;3.20;;;20.30;99.70;;;;;;5155309;27;20051;-78
2022/09/06 01:48:28;;;;;;;6.72;3.67;;;20.20;99.90;;;;;;5136550;27;20042;-78
2022/09/06 01:51:03;;;;;;;5.72;3.40;;;20.20;99.70;;;;;;5136684;27;20055;-78
2022/09/06 01:54:14;;;;;;;4.78;3.47;;;20.20;99.90;;;;;;5155421;27;20458;-78
2022/09/06 01:57:07;;;;;;;5.55;3.20;;;20.20;99.90;;;;;;5121159;27;20206;-78
2022/09/06 02:00:06;;;;;;;5.18;3.65;;;20.20;99.90;;;;;;5154895;27;20053;-78
2022/09/06 02:02:57;;;;;;;4.80;3.30;;;20.20;99.90;;;;;;5154636;27;20126;-78
2022/09/06 02:05:26;;;;;;;5.22;3.25;;;20.20;99.90;;;;;;5136596;27;20046;-78
2022/09/06 02:07:56;;;;;;;4.78;3.20;;;20.20;99.90;;;;;;5154669;27;20504;-79
2022/09/06 02:10:35;;;;;;;6.68;3.40;;;20.20;99.90;;;;;;5154852;27;20039;-78
2022/09/06 02:13:04;;;;;;;5.82;3.20;;;20.10;99.90;;;;;;5155082;27;20050;-78
2022/09/06 02:15:36;;;;;;;5.15;3.40;;;20.10;99.90;;;;;;5155028;27;20049;-78
2022/09/06 02:18:13;;;;;;;4.63;3.63;;;20.10;99.90;;;;;;5154621;27;20125;-78
2022/09/06 02:20:48;;;;;;;3.95;3.00;;;20.20;99.90;;;;;;5140489;27;20039;-78
2022/09/06 02:23:15;;;;;;;4.78;3.45;;;20.20;99.90;;;;;;5139827;27;20049;-78
2022/09/06 02:25:46;;;;;;;9.95;3.60;;;20.10;99.90;;;;;;5158581;27;20047;-78
2022/09/06 02:28:13;;;;;;;6.55;3.47;;;20.00;99.90;;;;;;5158288;27;20130;-78
2022/09/06 02:30:42;;;;;;;;;;;20.10;99.90;;;;;;5158723;27;20091;-78
2022/09/06 02:33:13;;;;;;;4.45;3.33;;;20.00;99.90;;;;;;5158153;27;19926;-78
2022/09/06 02:35:47;;;;;;;4.80;3.53;;;20.00;99.90;;;;;;5140049;27;20047;-78
2022/09/06 02:38:13;;;;;;;6.78;3.53;;;20.00;99.90;;;;;;5139664;27;20043;-78
2022/09/06 02:40:39;;;;;;;6.15;3.40;;;20.00;99.90;;;;;;5158097;27;20038;-78
2022/09/06 02:43:05;;;;;;;4.60;3.57;;;20.00;99.90;;;;;;5157798;27;20378;-79
2022/09/06 02:45:30;;;;;;;4.70;3.40;;;20.00;99.90;;;;;;5139391;27;20172;-78
2022/09/06 02:47:56;;;;;;;5.20;3.77;;;20.00;99.90;;;;;;5139631;27;20042;-79
2022/09/06 02:50:22;;;;;;;7.97;3.70;;;20.10;99.90;;;;;;5139570;27;20039;-78
2022/09/06 02:53:04;;;;;;;5.07;3.33;;;20.00;99.90;;;;;;5157711;27;20547;-78
2022/09/06 02:55:29;;;;;;;7.22;3.72;;;20.00;99.90;;;;;;5158238;27;20069;-79
2022/09/06 02:57:55;;;;;;;6.20;3.70;;;19.90;99.90;;;;;;5162315;27;20371;-79
2022/09/06 03:00:21;;;;;;;4.13;3.40;;;20.00;99.90;;;;;;5139313;27;20043;-79
2022/09/06 03:02:47;;;;;;;4.77;3.77;;;20.00;99.90;;;;;;5139136;27;20046;-79
2022/09/06 03:05:13;;;;;;;4.72;3.70;;;19.90;99.90;;;;;;5157493;27;20038;-78
2022/09/06 03:07:38;;;;;;;4.00;3.60;;;19.90;99.90;;;;;;5157542;27;20039;-79
2022/09/06 03:10:04;;;;;;;4.40;3.80;;;19.80;99.90;;;;;;5157450;27;20397;-79
2022/09/06 03:12:30;;;;;;;4.28;3.70;;;19.90;99.90;;;;;;5157312;27;20517;-78
2022/09/06 03:14:56;;;;;;;5.10;3.70;;;19.80;99.90;;;;;;5139539;27;20086;-78
2022/09/06 03:17:22;;;;;;;7.63;4.60;;;19.90;99.90;;;;;;5139303;27;20823;-78
2022/09/06 03:19:48;;;;;;;9.00;4.30;;;19.70;99.90;;;;;;5157387;27;20280;-79
2022/09/06 03:22:13;;;;;;;6.77;3.93;;;19.70;99.90;;;;;;5157218;27;20454;-79
2022/09/06 03:24:39;;;;;;;7.93;4.60;;;19.80;99.90;;;;;;5157991;27;20096;-79
2022/09/06 03:27:05;;;;;;;6.13;4.17;;;19.60;99.90;;;;;;5140723;27;20042;-79
2022/09/06 03:29:30;;;;;;;5.93;4.17;;;19.70;99.90;;;;;;5156454;27;20045;-79
2022/09/06 03:31:56;;;;;;;6.27;4.10;;;19.60;99.90;;;;;;5138915;27;20046;-79
2022/09/06 03:34:21;;;;;;;5.87;4.30;;;19.50;99.90;;;;;;5157311;27;20041;-79
2022/09/06 03:36:47;;;;;;;6.53;4.37;;;19.60;99.90;;;;;;5156968;27;20138;-79
2022/09/06 03:39:12;;;;;;;5.60;4.17;;;19.50;99.90;;;;;;5138962;27;20059;-79
2022/09/06 03:41:38;;;;;;;7.43;3.93;;;19.50;99.90;;;;;;5156774;27;20454;-79
2022/09/06 03:44:04;;;;;;;5.27;4.13;;;19.40;99.90;;;;;;5156679;27;20054;-79
2022/09/06 03:46:29;;;;;;;6.47;3.70;;;19.40;99.90;;;;;;5156782;27;20045;-79
2022/09/06 03:48:57;;;;;;;6.07;4.57;;;19.40;99.90;;;;;;5156745;27;20046;-79
2022/09/06 03:51:22;;;;;;;6.45;4.00;;;19.50;99.90;;;;;;5157083;27;20134;-79
2022/09/06 03:53:48;;;;;;;8.13;4.00;;;19.40;99.90;;;;;;5156658;27;20082;-79
2022/09/06 03:56:14;;;;;;;4.17;3.77;;;19.30;99.90;;;;;;5156562;27;20474;-78
2022/09/06 03:58:39;;;;;;;5.20;4.07;;;19.40;99.90;;;;;;5160571;27;20038;-79
2022/09/06 04:01:10;;;;;;;6.57;4.23;;;19.40;99.90;;;;;;5156518;27;20035;-78
2022/09/06 04:03:36;;;;;;;8.25;4.82;;;19.30;99.90;;;;;;5156339;27;20049;-78
2022/09/06 04:06:03;;;;;;;;;;;19.50;99.90;;;;;;5156823;27;20065;-79
2022/09/06 04:08:29;;;;;;;6.40;4.55;;;19.40;99.90;;;;;;5137886;27;20422;-78
2022/09/06 04:10:56;;;;;;;4.73;4.20;;;19.40;99.90;;;;;;5156311;27;20085;-79
2022/09/06 04:13:22;;;;;;;5.35;4.07;;;19.40;99.90;;;;;;5155867;27;20506;-78
2022/09/06 04:15:48;;;;;;;7.10;4.68;;;19.50;99.90;;;;;;5156536;27;20042;-79
2022/09/06 04:18:14;;;;;;;8.00;4.63;;;19.40;99.90;;;;;;5156324;27;20398;-79
2022/09/06 04:20:40;;;;;;;5.45;4.45;;;19.40;99.90;;;;;;5156348;27;20050;-79
2022/09/06 04:23:07;;;;;;;7.20;4.50;;;19.40;99.90;;;;;;5155955;27;20090;-78
2022/09/06 04:25:32;;;;;;;4.45;4.05;;;19.60;99.90;;;;;;5156042;27;20502;-79
2022/09/06 04:27:58;;;;;;;5.17;4.10;;;19.40;99.90;;;;;;5155995;27;20050;-78
2022/09/06 04:30:24;;;;;;;5.63;4.10;;;19.50;99.90;;;;;;5155876;27;20042;-78
2022/09/06 04:32:49;;;;;;;7.03;4.23;;;19.50;99.90;;;;;;5155926;27;20410;-79
2022/09/06 04:35:15;;;;;;;5.57;4.43;;;19.50;99.90;;;;;;5156132;27;20042;-78
2022/09/06 04:37:40;;;;;;;5.03;4.23;;;19.50;99.90;;;;;;5137688;27;20453;-78
2022/09/06 04:40:06;;;;;;;6.10;4.33;;;19.50;99.90;;;;;;5155765;27;20047;-79
2022/09/06 04:42:32;;;;;;;9.77;4.47;;;19.50;99.90;;;;;;5154724;27;20053;-78
2022/09/06 04:44:58;;;;;;;5.70;4.13;;;19.50;99.90;;;;;;5155612;27;20042;-78
2022/09/06 04:47:24;;;;;;;7.20;4.13;;;19.60;99.90;;;;;;5155611;27;20050;-79
2022/09/06 04:49:50;;;;;;;6.78;4.38;;;19.50;99.90;;;;;;5155871;27;20079;-79
2022/09/06 04:52:16;;;;;;;7.60;4.60;;;19.50;99.90;;;;;;5155510;27;20478;-78
2022/09/06 04:54:42;;;;;;;6.00;4.60;;;19.60;99.90;;;;;;5155563;27;20035;-78
2022/09/06 04:57:07;;;;;;;5.43;4.27;;;19.50;99.90;;;;;;5137290;27;20043;-79
2022/09/06 04:59:33;;;;;;;7.53;4.47;;;19.50;99.90;;;;;;5159344;27;20095;-79
2022/09/06 05:01:59;;;;;;;5.63;4.93;;;19.50;99.90;;;;;;5155641;27;20125;-79
2022/09/06 05:04:24;;;;;;;6.77;4.73;;;19.40;99.90;;;;;;5137404;27;20038;-78
2022/09/06 05:07:03;;;;;;;5.43;4.67;;;19.40;99.90;;;;;;5137091;27;20050;-79
2022/09/06 05:09:29;;;;;;;5.75;4.55;;;19.40;99.90;;;;;;5155486;27;20163;-79
2022/09/06 05:11:55;;;;;;;6.47;4.10;;;19.40;99.90;;;;;;5155393;27;20125;-78
2022/09/06 05:14:20;;;;;;;7.87;4.93;;;19.40;99.90;;;;;;5155331;27;20118;-78
2022/09/06 05:16:46;;;;;;;9.37;5.13;;;19.40;99.90;;;;;;5137107;27;20050;-79
2022/09/06 05:19:11;;;;;;;8.93;5.17;;;19.40;99.90;;;;;;5155553;27;20099;-78
2022/09/06 05:21:37;;;;;;;7.50;5.60;;;19.50;99.90;;;;;;5155326;27;20081;-79
2022/09/06 05:24:03;;;;;;;8.97;5.63;;;19.30;99.90;;;;;;5155230;27;20153;-78
2022/09/06 05:26:28;;;;;;;8.13;5.17;;;19.30;99.90;;;;;;5136714;27;20038;-79
2022/09/06 05:28:54;;;;;;;8.90;5.20;;;19.30;99.90;;;;;;5155222;27;20045;-79
2022/09/06 05:31:30;;;;;;;6.10;5.50;;;19.20;99.90;;;;;;5137357;27;20470;-78
2022/09/06 05:33:57;;;;;;;7.70;5.43;;;19.30;99.90;;;;;;5137113;27;20092;-78
2022/09/06 05:36:27;;;;;;;9.10;5.35;;;19.30;99.90;;;;;;5155148;27;20046;-78
2022/09/06 05:38:54;;;;;;;14.35;5.90;;;19.20;99.90;;;;;;5155385;27;20051;-77
2022/09/06 05:41:21;;;;;;;9.00;5.63;;;19.10;99.90;;;;;;5119534;27;20126;-79
2022/09/06 05:43:47;;;;;;;9.85;6.30;;;19.20;99.90;;;;;;5155076;27;20121;-78
2022/09/06 05:46:14;;;;;;;8.47;6.40;;;19.10;99.90;;;;;;5136728;27;20442;-78
2022/09/06 05:48:39;;;;;;;11.00;6.70;;;19.10;99.90;;;;;;5154958;27;20039;-78
2022/09/06 05:51:08;;;;;;;11.30;6.90;;;19.10;99.90;;;;;;5154629;27;20455;-78
2022/09/06 05:53:39;;;;;;;9.93;6.10;;;19.10;99.90;;;;;;5157118;27;20504;-78
2022/09/06 05:56:05;;;;;;;10.80;6.80;;;19.10;99.90;;;;;;5158926;27;20046;-78
2022/09/06 05:58:31;;;;;;;8.55;6.90;;;19.00;99.90;;;;;;5158914;27;20042;-78
2022/09/06 06:01:13;;;;;;;9.25;7.45;;;19.00;99.90;;;;;;5160381;27;20039;-78
2022/09/06 06:03:38;;;;;;;8.38;7.20;;;19.00;99.90;;;;;;5159087;27;20070;-77
2022/09/06 06:06:04;;;;;;;7.93;6.60;;;19.00;99.90;;;;;;5158876;27;20042;-78
2022/09/06 06:08:30;;;;;;;11.00;7.73;;;18.90;99.90;;;;;;5140810;27;20444;-78
2022/09/06 06:10:59;;;;;;;7.87;6.93;;;18.90;99.90;;;;;;5140110;27;20092;-78
2022/09/06 06:13:26;;;;;;;12.98;7.78;;;18.90;99.90;;;;;;5158516;27;20478;-78
2022/09/06 06:15:52;;;;;;;10.80;7.28;;;18.70;99.90;;;;;;5158494;27;20043;-77
2022/09/06 06:18:17;;;;;;;9.37;7.27;;;18.80;99.90;;;;;;5158587;27;20073;-77
2022/09/06 06:20:43;;;;;;;9.20;6.90;;;18.70;99.90;;;;;;5158372;27;20046;-78
2022/09/06 06:23:08;;;;;;;9.47;7.90;;;18.70;99.90;;;;;;5158757;27;20038;-78
2022/09/06 06:25:34;;;;;;;8.37;7.20;;;18.80;99.90;;;;;;5158430;27;20039;-77
2022/09/06 06:27:59;;;;;;;8.57;7.27;;;18.70;99.90;;;;;;5158360;27;20050;-78
2022/09/06 06:30:25;;;;;;;11.03;7.90;;;18.70;99.90;;;;;;5158086;27;20038;-78
2022/09/06 06:32:50;;;;;;;12.07;7.33;;;18.70;99.90;;;;;;5158270;27;20050;-77
2022/09/06 06:35:16;;;;;;;9.93;7.80;;;18.60;99.90;;;;;;5158065;27;20035;-78
2022/09/06 06:37:43;;;;;;;8.97;8.07;;;18.70;99.90;;;;;;5158141;27;20039;-78
2022/09/06 06:40:09;;;;;;;8.35;7.15;;;18.70;99.90;;;;;;5158091;27;20394;-78
2022/09/06 06:42:34;;;;;;;8.10;7.30;;;18.70;99.90;;;;;;5158110;27;20042;-78
2022/09/06 06:45:00;;;;;;;8.13;7.07;;;18.70;99.90;;;;;;5157906;27;20058;-78
2022/09/06 06:47:26;;;;;;;9.13;7.30;;;18.70;99.90;;;;;;5157949;27;20171;-77
2022/09/06 06:49:52;;;;;;;8.77;7.70;;;18.80;99.90;;;;;;5158015;27;20082;-77
2022/09/06 06:52:20;;;;;;;7.87;7.17;;;18.80;99.90;;;;;;5139178;27;20039;-78
2022/09/06 06:54:45;;;;;;;9.30;7.53;;;18.90;99.90;;;;;;5157771;27;20390;-78
2022/09/06 06:57:11;;;;;;;8.67;7.77;;;19.00;99.90;;;;;;5157890;27;20038;-78
2022/09/06 06:59:40;;;;;;;9.23;7.43;;;18.80;99.90;;;;;;5157657;27;20078;-77
2022/09/06 07:02:06;;;;;;;8.43;7.63;;;18.90;99.90;;;;;;5158148;27;20082;-77
2022/09/06 07:04:31;;;;;;;11.03;8.70;;;18.90;99.90;;;;;;5156839;27;20043;-78
2022/09/06 07:06:57;;;;;;;10.00;8.23;;;18.90;99.90;;;;;;5157565;27;20051;-77
2022/09/06 07:09:23;;;;;;;8.73;7.93;;;19.00;99.90;;;;;;5157621;27;20042;-78
2022/09/06 07:11:49;;;;;;;14.97;9.27;;;19.00;99.90;;;;;;5157553;27;20078;-77
2022/09/06 07:14:15;;;;;;;9.63;8.73;;;19.00;99.90;;;;;;5157488;27;20134;-77
2022/09/06 07:16:41;;;;;;;10.23;7.90;;;19.10;99.90;;;;;;5157461;27;20044;-78
2022/09/06 07:19:07;;;;;;;8.93;7.50;;;19.10;99.90;;;;;;5138803;27;20508;-77
2022/09/06 07:21:32;;;;;;;9.83;8.83;;;19.10;99.90;;;;;;5138789;27;20501;-78
2022/09/06 07:23:58;;;;;;;11.07;9.00;;;19.20;99.90;;;;;;5157240;27;20090;-78
2022/09/06 07:26:26;;;;;;;10.73;8.90;;;19.20;99.90;;;;;;5139138;27;20046;-77
2022/09/06 07:28:57;;;;;;;11.15;8.70;;;19.30;99.90;;;;;;5157501;27;20084;-77
2022/09/06 07:31:23;;;;;;;10.35;9.18;;;19.20;99.90;;;;;;5157047;27;20057;-78
2022/09/06 07:33:49;;;;;;;10.32;9.02;;;19.30;99.90;;;;;;5157032;27;20121;-77
2022/09/06 07:36:15;;;;;;;10.80;9.20;;;19.40;99.90;;;;;;5157560;27;20047;-77
2022/09/06 07:38:41;;;;;;;10.73;9.02;;;19.40;99.90;;;;;;5156933;27;20054;-77
2022/09/06 07:41:09;;;;;;;12.47;9.37;;;19.40;99.90;;;;;;5156977;27;20039;-78
2022/09/06 07:43:35;;;;;;;12.82;9.02;;;19.40;99.90;;;;;;5156607;27;20043;-78
2022/09/06 07:46:02;;;;;;;13.73;9.27;;;19.30;99.90;;;;;;5138549;27;20386;-78
2022/09/06 07:48:33;;;;;;;11.73;9.60;;;19.50;99.90;;;;;;5156772;27;20068;-78
2022/09/06 07:51:10;;;;;;;10.93;9.82;;;19.40;99.90;;;;;;5156590;27;20107;-78
2022/09/06 07:53:36;;;;;;;15.53;9.30;;;19.50;99.90;;;;;;5156693;27;20047;-78
2022/09/06 07:56:03;;;;;;;;;;;19.50;99.90;;;;;;5157031;27;20043;-78
2022/09/06 07:58:29;;;;;;;9.85;8.85;;;19.50;99.90;;;;;;5156629;27;19923;-77
2022/09/06 08:01:30;;;;;;;14.07;9.77;;;19.60;99.90;;;;;;5138295;27;20083;-78
2022/09/06 08:03:58;;;;;;;10.35;9.32;;;19.60;99.90;;;;;;5157750;27;20042;-78
2022/09/06 08:06:26;;;;;;;10.13;9.13;;;19.70;99.90;;;;;;5138219;27;20056;-78
2022/09/06 08:08:52;;;;;;;10.27;9.23;;;19.80;99.90;;;;;;5156307;27;20068;-78
2022/09/06 08:11:18;;;;;;;9.95;8.73;;;20.00;99.90;;;;;;5156429;27;20379;-78
2022/09/06 08:13:48;;;;;;;13.27;9.90;;;20.10;99.90;;;;;;5137989;27;20051;-77
2022/09/06 08:16:15;;;;;;;12.38;9.43;;;20.30;99.90;;;;;;5156593;27;20046;-77
2022/09/06 08:18:41;;;;;;;10.05;9.05;;;20.20;99.90;;;;;;5156097;27;20042;-78
2022/09/06 08:21:10;;;;;;;9.90;8.90;;;20.30;99.90;;;;;;5156338;27;20046;-78
2022/09/06 08:23:36;;;;;;;10.13;9.07;;;20.50;99.90;;;;;;5156006;27;20085;-77
2022/09/06 08:26:02;;;;;;;11.00;9.77;;;20.60;99.90;;;;;;5155947;27;20135;-78
2022/09/06 08:28:27;;;;;;;10.80;9.87;;;20.70;99.90;;;;;;5155613;27;20088;-77
2022/09/06 08:30:53;;;;;;;11.47;8.90;;;20.90;99.90;;;;;;5155943;27;20034;-77
2022/09/06 08:33:24;;;;;;;13.70;9.63;;;21.10;99.90;;;;;;5155878;27;20042;-77
2022/09/06 08:35:59;;;;;;;10.05;8.88;;;21.20;99.90;;;;;;5155819;27;20513;-78
2022/09/06 08:38:26;;;;;;;9.70;8.75;;;21.30;99.90;;;;;;5155823;27;20043;-77
2022/09/06 08:40:54;;;;;;;10.27;9.18;;;21.50;99.90;;;;;;5137143;27;20046;-78
2022/09/06 08:43:21;;;;;;;13.82;9.50;;;21.70;99.90;;;;;;5133421;27;20058;-78
2022/09/06 08:45:54;;;;;;;10.70;9.57;;;21.70;99.90;;;;;;5133552;27;20047;-77
2022/09/06 08:48:22;;;;;;;11.32;9.85;;;21.80;99.90;;;;;;5135233;27;20054;-77
2022/09/06 08:51:27;;;;;;;11.63;9.25;;;21.80;99.90;;;;;;5134896;27;20050;-78
2022/09/06 08:53:59;;;;;;;12.65;10.35;;;21.80;99.90;;;;;;5110831;27;20455;-77
2022/09/06 08:56:33;;;;;;;10.38;9.30;;;21.90;99.90;;;;;;5134857;27;20043;-76
2022/09/06 08:59:10;;;;;;;10.73;9.38;;;22.00;99.90;;;;;;5134829;27;20039;-77
2022/09/06 09:02:05;;;;;;;11.50;9.38;;;22.30;99.90;;;;;;5134939;27;20072;-76
2022/09/06 09:04:32;;;;;;;12.90;10.13;;;22.40;99.90;;;;;;5135145;27;20386;-76
2022/09/06 09:07:06;;;;;;;13.45;10.02;;;22.50;99.90;;;;;;5134752;28;20390;-76
2022/09/06 09:09:34;;;;;;;10.43;9.45;;;22.50;99.90;;;;;;5134642;27;20100;-77
2022/09/06 09:12:00;;;;;;;10.45;8.38;;;22.60;99.90;;;;;;5134669;27;20043;-77
2022/09/06 09:14:34;;;;;;;10.75;8.20;;;22.70;99.90;;;;;;5133356;28;20478;-77
2022/09/06 09:17:06;;;;;;;10.02;8.70;;;22.90;99.90;;;;;;5134852;27;20406;-77
2022/09/06 09:19:35;;;;;;;9.60;8.45;;;23.10;99.90;;;;;;5134661;27;20051;-77
2022/09/06 09:22:01;;;;;;;11.27;7.72;;;23.30;99.90;;;;;;5134964;27;20486;-77
2022/09/06 09:24:27;;;;;;;9.68;8.45;;;23.40;99.90;;;;;;5133324;28;20035;-76
2022/09/06 09:27:04;;;;;;;8.60;7.70;;;23.60;99.90;;;;;;5134483;27;20095;-76
2022/09/06 09:29:30;;;;;;;9.63;7.28;;;23.70;99.90;;;;;;5138547;27;20058;-76
2022/09/06 09:31:55;;;;;;;10.90;7.90;;;23.80;99.90;;;;;;5139009;27;20043;-76
2022/09/06 09:34:38;;;;;;;10.37;8.13;;;24.00;99.90;;;;;;5138515;27;20402;-76
2022/09/06 09:37:13;;;;;;;9.32;7.05;;;24.00;99.90;;;;;;5138644;27;20054;-75
2022/09/06 09:39:39;;;;;;;9.25;8.02;;;24.10;99.90;;;;;;5138263;27;20043;-77
2022/09/06 09:42:08;;;;;;;8.07;6.65;;;24.20;99.90;;;;;;5144915;27;20053;-77
2022/09/06 09:44:34;;;;;;;10.77;6.65;;;24.20;99.90;;;;;;5141209;27;20057;-77
2022/09/06 09:47:20;;;;;;;8.60;6.80;;;24.30;99.90;;;;;;5158730;27;20486;-77
2022/09/06 09:49:46;;;;;;;7.93;6.72;;;24.30;99.90;;;;;;5158889;27;20386;-78
2022/09/06 09:52:13;;;;;;;9.67;6.30;;;24.50;99.90;;;;;;5159091;27;20049;-78
2022/09/06 09:54:44;;;;;;;6.60;5.68;;;24.50;99.90;;;;;;5159316;27;20086;-78
2022/09/06 09:57:16;;;;;;;8.60;5.72;;;24.60;99.90;;;;;;5158904;27;20058;-77
2022/09/06 09:59:46;;;;;;;5.90;5.30;;;24.80;99.90;;;;;;5158964;27;20039;-78
2022/09/06 10:02:17;;;;;;;6.63;5.60;;;24.80;99.90;;;;;;5158913;27;20082;-78
2022/09/06 10:04:48;;;;;;;6.40;5.18;;;24.90;99.90;;;;;;5140542;27;20042;-77
2022/09/06 10:07:20;;;;;;;9.30;5.05;;;25.00;99.90;;;;;;5158862;27;20371;-78
2022/09/06 10:09:48;;;;;;;5.60;4.32;;;25.00;99.90;;;;;;5158705;27;20099;-78
2022/09/06 10:12:37;;;;;;;5.78;4.45;;;25.20;99.90;;;;;;5158606;27;20038;-77
2022/09/06 10:15:04;;;;;;;7.07;4.30;;;25.40;99.90;;;;;;5158584;27;20039;-78
2022/09/06 10:17:36;;;;;;;6.05;4.47;;;25.50;99.90;;;;;;5158482;27;20039;-78
2022/09/06 10:20:08;;;;;;;6.00;4.18;;;25.60;99.90;;;;;;5158464;27;20400;-78
2022/09/06 10:23:12;;;;;;;6.38;3.75;;;25.60;99.90;;;;;;5140241;27;20087;-78
2022/09/06 10:25:43;;;;;;;7.00;3.80;;;25.60;99.90;;;;;;5158374;27;20046;-78
2022/09/06 10:28:30;;;;;;;5.75;3.47;;;25.70;99.90;;;;;;5140027;27;20051;-78
2022/09/06 10:31:23;;;;;;;7.35;3.28;;;25.70;99.40;;;;;;5158022;27;20034;-79
2022/09/06 10:34:11;;;;;;;4.35;3.60;;;25.70;99.30;;;;;;5158118;27;20047;-78
2022/09/06 10:36:43;;;;;;;4.43;3.53;;;25.90;99.60;;;;;;5158533;27;20039;-78
2022/09/06 10:39:33;;;;;;;6.63;3.28;;;26.00;99.00;;;;;;5156670;27;20490;-79
2022/09/06 10:42:20;;;;;;;3.83;2.70;;;26.10;98.90;;;;;;5158070;27;20058;-78
2022/09/06 10:44:51;;;;;;;4.43;3.28;;;26.20;98.50;;;;;;5122609;27;20042;-78
2022/09/06 10:47:17;;;;;;;5.43;3.45;;;26.30;98.60;;;;;;5158134;27;20043;-79
2022/09/06 10:49:48;;;;;;;13.07;3.80;;;26.20;98.10;;;;;;5139739;27;20397;-78
2022/09/06 10:52:21;;;;;;;5.15;3.58;;;26.30;97.90;;;;;;5158029;27;20047;-78
2022/09/06 10:54:47;;;;;;;5.88;3.42;;;26.30;98.00;;;;;;5139630;27;20039;-78
2022/09/06 10:57:21;;;;;;;4.63;3.53;;;26.40;98.20;;;;;;5157879;27;20042;-79
2022/09/06 10:59:59;;;;;;;5.32;2.95;;;26.40;97.70;;;;;;5157605;27;20763;-78
2022/09/06 11:03:00;;;;;;;3.58;3.20;;;26.50;97.50;;;;;;5157740;27;20466;-79
2022/09/06 11:05:32;;;;;;;4.72;3.20;;;26.70;97.70;;;;;;5157606;27;20035;-78
2022/09/06 11:08:21;;;;;;;3.95;3.28;;;26.70;96.60;;;;;;5159179;27;20047;-78
2022/09/06 11:10:49;;;;;;;5.60;3.15;;;26.70;96.90;;;;;;5144038;27;20050;-79
2022/09/06 11:13:17;;;;;;;4.88;3.13;;;26.70;96.80;;;;;;5157513;27;20382;-78
2022/09/06 11:16:03;;;;;;;4.85;3.40;;;26.70;96.40;;;;;;5138910;27;20093;-79
2022/09/06 11:18:46;;;;;;;4.45;3.40;;;26.80;96.30;;;;;;5157623;27;20174;-79
2022/09/06 11:21:33;;;;;;;4.10;2.90;;;26.80;96.30;;;;;;5157420;27;20122;-79
2022/09/06 11:24:10;;;;;;;3.47;3.15;;;26.90;96.30;;;;;;5156917;27;20493;-79
2022/09/06 11:27:05;;;;;;;6.15;3.30;;;27.00;95.80;;;;;;5139138;27;20470;-78
2022/09/06 11:29:33;;;;;;;8.43;3.05;;;27.10;95.70;;;;;;5138963;27;20087;-79
2022/09/06 11:32:01;;;;;;;3.92;2.65;;;27.20;95.80;;;;;;5138666;27;20056;-78
2022/09/06 11:34:31;;;;;;;3.45;2.78;;;27.30;95.60;;;;;;5138562;27;20042;-78
2022/09/06 11:36:59;;;;;;;7.07;2.80;;;27.30;95.00;;;;;;5156982;27;20079;-79
2022/09/06 11:39:33;;;;;;;3.42;2.65;;;27.40;95.00;;;;;;5121733;27;20047;-79
2022/09/06 11:41:59;;;;;;;3.50;2.65;;;27.40;95.10;;;;;;5138624;27;20059;-78
2022/09/06 11:44:56;;;;;;;4.05;2.80;;;27.50;95.00;;;;;;5157027;27;20039;-78
2022/09/06 11:47:42;;;;;;;3.75;2.47;;;27.60;93.80;;;;;;5156456;27;20050;-79
2022/09/06 11:50:19;;;;;;;4.40;2.63;;;27.70;93.80;;;;;;5156568;27;20086;-79
2022/09/06 11:52:58;;;;;;;5.60;2.50;;;27.80;94.50;;;;;;5156893;27;20039;-79
2022/09/06 11:55:29;;;;;;;4.57;2.90;;;27.90;93.70;;;;;;5120855;27;20042;-79
2022/09/06 11:57:58;;;;;;;3.28;2.60;;;27.90;94.20;;;;;;5157237;27;20039;-79
2022/09/06 12:00:24;;;;;;;5.43;3.25;;;28.00;94.10;;;;;;5138524;27;20375;-79
2022/09/06 12:02:51;;;;;;;6.85;3.10;;;28.10;93.80;;;;;;5156497;27;20046;-79
2022/09/06 12:05:16;;;;;;;;;;;28.00;93.70;;;;;;5156975;27;20076;-79
2022/09/06 12:08:09;;;;;;;4.15;2.42;;;28.00;93.30;;;;;;5156966;27;19944;-78
2022/09/06 12:10:38;;;;;;;4.90;2.92;;;28.00;93.40;;;;;;5156900;27;20047;-79
2022/09/06 12:13:42;;;;;;;6.47;2.92;;;28.00;93.50;;;;;;5156550;27;20454;-79
2022/09/06 12:16:10;;;;;;;4.00;3.00;;;28.10;93.80;;;;;;5156495;27;20120;-79
2022/09/06 12:18:47;;;;;;;5.82;2.95;;;28.20;94.10;;;;;;5156273;27;20133;-78
2022/09/06 12:21:36;;;;;;;3.63;2.85;;;28.30;93.90;;;;;;5137755;27;20095;-79
2022/09/06 12:24:03;;;;;;;4.22;3.03;;;28.40;93.70;;;;;;5142416;27;20547;-78
2022/09/06 12:26:49;;;;;;;6.38;2.95;;;28.60;93.80;;;;;;5137869;27;20051;-79
2022/09/06 12:29:27;;;;;;;5.75;2.75;;;28.60;93.60;;;;;;5156027;27;20470;-79
2022/09/06 12:31:56;;;;;;;7.95;2.90;;;28.60;93.50;;;;;;5156267;27;20397;-80
2022/09/06 12:34:25;;;;;;;5.35;2.80;;;28.60;93.70;;;;;;5120379;27;20068;-79
2022/09/06 12:36:57;;;;;;;5.10;2.80;;;28.60;93.40;;;;;;5155875;27;20046;-78
2022/09/06 12:39:23;;;;;;;3.58;2.70;;;28.60;93.20;;;;;;5156090;27;20133;-79
2022/09/06 12:41:54;;;;;;;3.65;2.70;;;28.60;93.30;;;;;;5156031;27;20130;-80
2022/09/06 12:44:27;;;;;;;3.60;2.50;;;28.60;93.30;;;;;;5155477;27;20045;-79
2022/09/06 12:46:53;;;;;;;6.72;2.70;;;28.70;92.90;;;;;;5155991;27;20047;-79
2022/09/06 12:49:21;;;;;;;2.95;2.28;;;28.90;93.20;;;;;;5155749;27;20042;-79
2022/09/06 12:51:47;;;;;;;3.15;2.60;;;29.00;93.10;;;;;;5137368;27;20397;-79
2022/09/06 12:54:25;;;;;;;5.43;2.70;;;29.10;93.00;;;;;;5137543;27;20039;-79
2022/09/06 12:56:51;;;;;;;3.53;2.60;;;29.10;92.90;;;;;;5155650;27;20489;-79
2022/09/06 12:59:18;;;;;;;;;;;29.20;92.70;;;;;;5156071;27;20410;-79
2022/09/06 13:01:59;;;;;;;5.47;2.50;;;29.20;91.50;;;;;;5155496;27;19918;-79
2022/09/06 13:04:45;;;;;;;4.55;2.58;;;29.30;92.00;;;;;;5155301;27;20030;-79